Missouri River (Missouri), Jefferson City (06910450)

StateMissouriLatestUnknown (92800 cfs)
RiverMissouri RiverRatingObservedEstimated
Updated2020-02-25 15:45 (15 minutes ago)Flood - The river is flooding. Obstacles can be treacherous or deadly. The river should be avoided at this stage for casual trips and definitely for the inexperienced. Trips should be attempted only with protective gear and equipment.Flood(none)(none)
Discharge92800 cfs (median: 50700 cfs)High - The river is high and potentially dangerous, especially for the young and / or inexperienced. Normal stream obstacles are sometimes difficult to navigate. Extended distances can be attempted, but canoe travel may not be advisable.High(none)(none)
Height12.71 feetGood - Conditions are ideal for a canoe or kayak. Boats typically will drag on fewer than one-quarter of riffles, if at all, and portages are unnecessary or rare. Normal float lengths can be attempted without a problem.Good(none)(none)
TrendSteady (rising over 24 hours)Low - River is low but can still be floated. Some riffles are okay but most come with significant dragging and might need a portage. Float lengths should be reduced to accommodate low flow, dragging, and portages.Low(none)(none)
USGSExternal icon USGS Site (External icon Google Maps)Poor - River is too low to float comfortably. Most or all riffles will drag or must be portaged and some obstacles (such as slick shelf rock) cause undue problems. Avoid the river at this stage for casual paddling trips.Poor(none)(none)

Trending Data

Plot Image

Trips for Missouri River (Missouri), Jefferson City (06910450)

DateStartEndDistanceConditionDischargeHeightFishingDetails

A total of 0 rows are displayed.

Condition Descriptions

Fishing Conditions

Fish Species

Notes

Classic Trip List

The classic River Trips application is still available for use. It is updated with the new system using a data retrofit. It is no longer maintained. The original River Trips application is no longer updated (as of 1 Dec 2016) but can be checked for errors or for the condition of the data before it was converted to the new system.

Gauge Data Table

ObservationHeightDischargeMaximum
Discharge
Minimum
Discharge
Mean
Discharge
P05P10P20P25P50
(Median)
P75P80P90P95
2020-02-25 15:45 12.71 92800 142000 (2019) 43100 (2015) 74500 44500 46700 50700 114000 131000
2020-02-25 14:45 12.71 92800 142000 (2019) 43100 (2015) 74500 44500 46700 50700 114000 131000
2020-02-25 13:45 12.71 92800 142000 (2019) 43100 (2015) 74500 44500 46700 50700 114000 131000
2020-02-25 12:45 12.67 92400 142000 (2019) 43100 (2015) 74500 44500 46700 50700 114000 131000
2020-02-25 11:45 12.68 92500 142000 (2019) 43100 (2015) 74500 44500 46700 50700 114000 131000
2020-02-25 10:45 12.72 92900 142000 (2019) 43100 (2015) 74500 44500 46700 50700 114000 131000
2020-02-25 09:45 12.70 92700 142000 (2019) 43100 (2015) 74500 44500 46700 50700 114000 131000
2020-02-25 08:45 12.58 91700 142000 (2019) 43100 (2015) 74500 44500 46700 50700 114000 131000
2020-02-25 07:45 12.73 93000 142000 (2019) 43100 (2015) 74500 44500 46700 50700 114000 131000
2020-02-25 06:45 12.70 92700 142000 (2019) 43100 (2015) 74500 44500 46700 50700 114000 131000
2020-02-25 05:45 12.72 92900 142000 (2019) 43100 (2015) 74500 44500 46700 50700 114000 131000
2020-02-25 04:45 12.72 92900 142000 (2019) 43100 (2015) 74500 44500 46700 50700 114000 131000
2020-02-25 03:45 12.69 92600 142000 (2019) 43100 (2015) 74500 44500 46700 50700 114000 131000
2020-02-25 02:45 12.64 92200 142000 (2019) 43100 (2015) 74500 44500 46700 50700 114000 131000
2020-02-25 01:45 12.64 92200 142000 (2019) 43100 (2015) 74500 44500 46700 50700 114000 131000
2020-02-25 00:45 12.57 91600 142000 (2019) 43100 (2015) 74500 44500 46700 50700 114000 131000
2020-02-24 23:45 12.53 91300 98400 (2019) 41800 (2015) 64500 42900 44500 49900 91700 95700
2020-02-24 22:45 12.43 90400 98400 (2019) 41800 (2015) 64500 42900 44500 49900 91700 95700
2020-02-24 21:45 12.36 89900 98400 (2019) 41800 (2015) 64500 42900 44500 49900 91700 95700
2020-02-24 20:45 12.26 89000 98400 (2019) 41800 (2015) 64500 42900 44500 49900 91700 95700
2020-02-24 19:45 12.13 88000 98400 (2019) 41800 (2015) 64500 42900 44500 49900 91700 95700
2020-02-24 18:45 12.01 87000 98400 (2019) 41800 (2015) 64500 42900 44500 49900 91700 95700
2020-02-24 17:45 11.86 85800 98400 (2019) 41800 (2015) 64500 42900 44500 49900 91700 95700
2020-02-24 16:45 11.65 84100 98400 (2019) 41800 (2015) 64500 42900 44500 49900 91700 95700
2020-02-24 15:45 11.56 83400 98400 (2019) 41800 (2015) 64500 42900 44500 49900 91700 95700
2020-02-24 14:45 11.51 83100 98400 (2019) 41800 (2015) 64500 42900 44500 49900 91700 95700
2020-02-24 13:45 11.46 82700 98400 (2019) 41800 (2015) 64500 42900 44500 49900 91700 95700
2020-02-24 12:45 11.42 82400 98400 (2019) 41800 (2015) 64500 42900 44500 49900 91700 95700
2020-02-24 11:45 11.38 82000 98400 (2019) 41800 (2015) 64500 42900 44500 49900 91700 95700
2020-02-24 10:45 11.35 81800 98400 (2019) 41800 (2015) 64500 42900 44500 49900 91700 95700
2020-02-24 09:45 11.34 81700 98400 (2019) 41800 (2015) 64500 42900 44500 49900 91700 95700
2020-02-24 08:45 11.41 82300 98400 (2019) 41800 (2015) 64500 42900 44500 49900 91700 95700
2020-02-24 07:45 11.40 82200 98400 (2019) 41800 (2015) 64500 42900 44500 49900 91700 95700
2020-02-24 06:45 11.41 82300 98400 (2019) 41800 (2015) 64500 42900 44500 49900 91700 95700
2020-02-24 05:45 11.43 82400 98400 (2019) 41800 (2015) 64500 42900 44500 49900 91700 95700
2020-02-24 04:45 11.47 82700 98400 (2019) 41800 (2015) 64500 42900 44500 49900 91700 95700
2020-02-24 03:45 11.45 82600 98400 (2019) 41800 (2015) 64500 42900 44500 49900 91700 95700
2020-02-24 02:45 11.47 82700 98400 (2019) 41800 (2015) 64500 42900 44500 49900 91700 95700
2020-02-24 01:45 11.49 82900 98400 (2019) 41800 (2015) 64500 42900 44500 49900 91700 95700
2020-02-24 00:45 11.51 83100 98400 (2019) 41800 (2015) 64500 42900 44500 49900 91700 95700
2020-02-23 23:45 11.56 83400 75500 (2016) 40900 (2015) 57600 42600 45200 52000 72900 74500
2020-02-23 22:45 11.58 83600 75500 (2016) 40900 (2015) 57600 42600 45200 52000 72900 74500
2020-02-23 21:45 11.59 83700 75500 (2016) 40900 (2015) 57600 42600 45200 52000 72900 74500
2020-02-23 20:45 11.64 84100 75500 (2016) 40900 (2015) 57600 42600 45200 52000 72900 74500
2020-02-23 19:45 11.67 84300 75500 (2016) 40900 (2015) 57600 42600 45200 52000 72900 74500
2020-02-23 18:45 11.69 84500 75500 (2016) 40900 (2015) 57600 42600 45200 52000 72900 74500
2020-02-23 17:45 11.70 84500 75500 (2016) 40900 (2015) 57600 42600 45200 52000 72900 74500
2020-02-23 16:45 11.75 84900 75500 (2016) 40900 (2015) 57600 42600 45200 52000 72900 74500
2020-02-23 15:45 11.75 84900 75500 (2016) 40900 (2015) 57600 42600 45200 52000 72900 74500
2020-02-23 14:45 11.81 85400 75500 (2016) 40900 (2015) 57600 42600 45200 52000 72900 74500
2020-02-23 13:45 11.84 85600 75500 (2016) 40900 (2015) 57600 42600 45200 52000 72900 74500
2020-02-23 12:45 11.81 85400 75500 (2016) 40900 (2015) 57600 42600 45200 52000 72900 74500
2020-02-23 11:45 11.82 85500 75500 (2016) 40900 (2015) 57600 42600 45200 52000 72900 74500
2020-02-23 10:45 11.85 85700 75500 (2016) 40900 (2015) 57600 42600 45200 52000 72900 74500
2020-02-23 09:45 11.90 86100 75500 (2016) 40900 (2015) 57600 42600 45200 52000 72900 74500
2020-02-23 08:45 11.82 85500 75500 (2016) 40900 (2015) 57600 42600 45200 52000 72900 74500
2020-02-23 07:45 11.89 86000 75500 (2016) 40900 (2015) 57600 42600 45200 52000 72900 74500
2020-02-23 06:45 11.92 86300 75500 (2016) 40900 (2015) 57600 42600 45200 52000 72900 74500
2020-02-23 05:45 11.94 86400 75500 (2016) 40900 (2015) 57600 42600 45200 52000 72900 74500
2020-02-23 04:45 11.89 86000 75500 (2016) 40900 (2015) 57600 42600 45200 52000 72900 74500
2020-02-23 03:45 11.95 86500 75500 (2016) 40900 (2015) 57600 42600 45200 52000 72900 74500
2020-02-23 02:45 11.94 86400 75500 (2016) 40900 (2015) 57600 42600 45200 52000 72900 74500
2020-02-23 01:45 11.98 86800 75500 (2016) 40900 (2015) 57600 42600 45200 52000 72900 74500
2020-02-23 00:45 12.00 86900 75500 (2016) 40900 (2015) 57600 42600 45200 52000 72900 74500
2020-02-22 23:45 12.01 87000 71900 (2016) 42500 (2015) 57900 44000 46400 57300 69900 71100
2020-02-22 22:45 12.02 87100 71900 (2016) 42500 (2015) 57900 44000 46400 57300 69900 71100
2020-02-22 21:45 12.05 87300 71900 (2016) 42500 (2015) 57900 44000 46400 57300 69900 71100
2020-02-22 20:45 12.01 87000 71900 (2016) 42500 (2015) 57900 44000 46400 57300 69900 71100
2020-02-22 19:45 12.02 87100 71900 (2016) 42500 (2015) 57900 44000 46400 57300 69900 71100
2020-02-22 18:45 11.98 86800 71900 (2016) 42500 (2015) 57900 44000 46400 57300 69900 71100
2020-02-22 17:45 11.98 86800 71900 (2016) 42500 (2015) 57900 44000 46400 57300 69900 71100
2020-02-22 16:45 12.01 87000 71900 (2016) 42500 (2015) 57900 44000 46400 57300 69900 71100
2020-02-22 15:45 12.04 87200 71900 (2016) 42500 (2015) 57900 44000 46400 57300 69900 71100
2020-02-22 14:45 12.01 87000 71900 (2016) 42500 (2015) 57900 44000 46400 57300 69900 71100
2020-02-22 13:45 12.07 87500 71900 (2016) 42500 (2015) 57900 44000 46400 57300 69900 71100
2020-02-22 12:45 12.05 87300 71900 (2016) 42500 (2015) 57900 44000 46400 57300 69900 71100
2020-02-22 11:45 12.03 87200 71900 (2016) 42500 (2015) 57900 44000 46400 57300 69900 71100
2020-02-22 10:45 12.05 87300 71900 (2016) 42500 (2015) 57900 44000 46400 57300 69900 71100
2020-02-22 09:45 12.05 87300 71900 (2016) 42500 (2015) 57900 44000 46400 57300 69900 71100
2020-02-22 08:45 12.06 87400 71900 (2016) 42500 (2015) 57900 44000 46400 57300 69900 71100
2020-02-22 07:45 12.05 87300 71900 (2016) 42500 (2015) 57900 44000 46400 57300 69900 71100
2020-02-22 06:45 12.07 87500 71900 (2016) 42500 (2015) 57900 44000 46400 57300 69900 71100
2020-02-22 05:45 12.06 87400 71900 (2016) 42500 (2015) 57900 44000 46400 57300 69900 71100
2020-02-22 04:45 12.06 87400 71900 (2016) 42500 (2015) 57900 44000 46400 57300 69900 71100
2020-02-22 03:45 12.04 87200 71900 (2016) 42500 (2015) 57900 44000 46400 57300 69900 71100
2020-02-22 02:45 12.01 87000 71900 (2016) 42500 (2015) 57900 44000 46400 57300 69900 71100
2020-02-22 01:45 12.00 86900 71900 (2016) 42500 (2015) 57900 44000 46400 57300 69900 71100
2020-02-22 00:45 12.01 87000 71900 (2016) 42500 (2015) 57900 44000 46400 57300 69900 71100
2020-02-21 23:45 12.02 87100 69900 (2016) 43700 (2015) 56200 44500 45700 51400 69100 69600
2020-02-21 22:45 12.08 87600 69900 (2016) 43700 (2015) 56200 44500 45700 51400 69100 69600
2020-02-21 21:45 12.02 87100 69900 (2016) 43700 (2015) 56200 44500 45700 51400 69100 69600
2020-02-21 20:45 12.01 87000 69900 (2016) 43700 (2015) 56200 44500 45700 51400 69100 69600
2020-02-21 19:45 12.05 87300 69900 (2016) 43700 (2015) 56200 44500 45700 51400 69100 69600
2020-02-21 18:45 12.00 86900 69900 (2016) 43700 (2015) 56200 44500 45700 51400 69100 69600
2020-02-21 17:45 12.01 87000 69900 (2016) 43700 (2015) 56200 44500 45700 51400 69100 69600
2020-02-21 16:45 12.06 87400 69900 (2016) 43700 (2015) 56200 44500 45700 51400 69100 69600
2020-02-21 15:45 11.99 86800 69900 (2016) 43700 (2015) 56200 44500 45700 51400 69100 69600
2020-02-21 14:45 11.93 86400 69900 (2016) 43700 (2015) 56200 44500 45700 51400 69100 69600
2020-02-21 13:45 11.95 86500 69900 (2016) 43700 (2015) 56200 44500 45700 51400 69100 69600
2020-02-21 12:45 11.96 86600 69900 (2016) 43700 (2015) 56200 44500 45700 51400 69100 69600
2020-02-21 11:45 11.96 86600 69900 (2016) 43700 (2015) 56200 44500 45700 51400 69100 69600
2020-02-21 10:45 11.94 86400 69900 (2016) 43700 (2015) 56200 44500 45700 51400 69100 69600
2020-02-21 09:45 11.95 86500 69900 (2016) 43700 (2015) 56200 44500 45700 51400 69100 69600
2020-02-21 08:45 11.93 86400 69900 (2016) 43700 (2015) 56200 44500 45700 51400 69100 69600
2020-02-21 07:45 11.92 86300 69900 (2016) 43700 (2015) 56200 44500 45700 51400 69100 69600
2020-02-21 06:45 11.91 86200 69900 (2016) 43700 (2015) 56200 44500 45700 51400 69100 69600
2020-02-21 05:45 11.90 86100 69900 (2016) 43700 (2015) 56200 44500 45700 51400 69100 69600
2020-02-21 04:45 11.88 86000 69900 (2016) 43700 (2015) 56200 44500 45700 51400 69100 69600
2020-02-21 03:45 11.92 86300 69900 (2016) 43700 (2015) 56200 44500 45700 51400 69100 69600
2020-02-21 02:45 11.83 85600 69900 (2016) 43700 (2015) 56200 44500 45700 51400 69100 69600
2020-02-21 01:45 11.78 85200 69900 (2016) 43700 (2015) 56200 44500 45700 51400 69100 69600
2020-02-21 00:45 11.80 85300 69900 (2016) 43700 (2015) 56200 44500 45700 51400 69100 69600
2020-02-20 23:45 11.77 85100 69300 (2019) 36300 (2018) 53700 37800 40000 52100 68200 68900
2020-02-20 22:45 11.75 84900 69300 (2019) 36300 (2018) 53700 37800 40000 52100 68200 68900
2020-02-20 21:45 11.70 84500 69300 (2019) 36300 (2018) 53700 37800 40000 52100 68200 68900
2020-02-20 20:45 11.66 84200 69300 (2019) 36300 (2018) 53700 37800 40000 52100 68200 68900
2020-02-20 19:45 11.64 84100 69300 (2019) 36300 (2018) 53700 37800 40000 52100 68200 68900
2020-02-20 18:45 11.63 84000 69300 (2019) 36300 (2018) 53700 37800 40000 52100 68200 68900
2020-02-20 17:45 11.59 83700 69300 (2019) 36300 (2018) 53700 37800 40000 52100 68200 68900
2020-02-20 16:45 11.57 83500 69300 (2019) 36300 (2018) 53700 37800 40000 52100 68200 68900
2020-02-20 15:45 11.55 83400 69300 (2019) 36300 (2018) 53700 37800 40000 52100 68200 68900
2020-02-20 14:45 11.50 83000 69300 (2019) 36300 (2018) 53700 37800 40000 52100 68200 68900
2020-02-20 13:45 11.49 82900 69300 (2019) 36300 (2018) 53700 37800 40000 52100 68200 68900
2020-02-20 12:45 11.43 82400 69300 (2019) 36300 (2018) 53700 37800 40000 52100 68200 68900
2020-02-20 11:45 11.41 82300 69300 (2019) 36300 (2018) 53700 37800 40000 52100 68200 68900
2020-02-20 10:45 11.40 82200 69300 (2019) 36300 (2018) 53700 37800 40000 52100 68200 68900
2020-02-20 09:45 11.33 81700 69300 (2019) 36300 (2018) 53700 37800 40000 52100 68200 68900
2020-02-20 08:45 11.32 81600 69300 (2019) 36300 (2018) 53700 37800 40000 52100 68200 68900
2020-02-20 07:45 11.33 81700 69300 (2019) 36300 (2018) 53700 37800 40000 52100 68200 68900
2020-02-20 06:45 11.25 81100 69300 (2019) 36300 (2018) 53700 37800 40000 52100 68200 68900
2020-02-20 05:45 11.23 80900 69300 (2019) 36300 (2018) 53700 37800 40000 52100 68200 68900
2020-02-20 04:45 11.20 80700 69300 (2019) 36300 (2018) 53700 37800 40000 52100 68200 68900
2020-02-20 03:45 11.18 80500 69300 (2019) 36300 (2018) 53700 37800 40000 52100 68200 68900
2020-02-20 02:45 11.16 80400 69300 (2019) 36300 (2018) 53700 37800 40000 52100 68200 68900
2020-02-20 01:45 11.06 79600 69300 (2019) 36300 (2018) 53700 37800 40000 52100 68200 68900
2020-02-20 00:45 11.13 80100 69300 (2019) 36300 (2018) 53700 37800 40000 52100 68200 68900
2020-02-19 23:45 11.11 80000 70500 (2019) 35000 (2018) 53500 36800 39400 53900 67500 69300
2020-02-19 22:45 11.04 79500 70500 (2019) 35000 (2018) 53500 36800 39400 53900 67500 69300
2020-02-19 21:45 11.06 79600 70500 (2019) 35000 (2018) 53500 36800 39400 53900 67500 69300
2020-02-19 20:45 11.01 79200 70500 (2019) 35000 (2018) 53500 36800 39400 53900 67500 69300
2020-02-19 19:45 10.98 79000 70500 (2019) 35000 (2018) 53500 36800 39400 53900 67500 69300
2020-02-19 18:45 10.98 79000 70500 (2019) 35000 (2018) 53500 36800 39400 53900 67500 69300
2020-02-19 17:45 10.98 79000 70500 (2019) 35000 (2018) 53500 36800 39400 53900 67500 69300
2020-02-19 16:45 10.99 79100 70500 (2019) 35000 (2018) 53500 36800 39400 53900 67500 69300
2020-02-19 15:45 10.93 78700 70500 (2019) 35000 (2018) 53500 36800 39400 53900 67500 69300
2020-02-19 14:45 10.93 78700 70500 (2019) 35000 (2018) 53500 36800 39400 53900 67500 69300
2020-02-19 13:45 10.91 78500 70500 (2019) 35000 (2018) 53500 36800 39400 53900 67500 69300
2020-02-19 12:45 10.90 78400 70500 (2019) 35000 (2018) 53500 36800 39400 53900 67500 69300
2020-02-19 11:45 10.89 78400 70500 (2019) 35000 (2018) 53500 36800 39400 53900 67500 69300
2020-02-19 10:45 10.89 78400 70500 (2019) 35000 (2018) 53500 36800 39400 53900 67500 69300
2020-02-19 09:45 10.89 78400 70500 (2019) 35000 (2018) 53500 36800 39400 53900 67500 69300
2020-02-19 08:45 10.88 78300 70500 (2019) 35000 (2018) 53500 36800 39400 53900 67500 69300
2020-02-19 07:45 10.89 78400 70500 (2019) 35000 (2018) 53500 36800 39400 53900 67500 69300
2020-02-19 06:45 10.89 78400 70500 (2019) 35000 (2018) 53500 36800 39400 53900 67500 69300
2020-02-19 05:45 10.90 78400 70500 (2019) 35000 (2018) 53500 36800 39400 53900 67500 69300
2020-02-19 04:45 10.91 78500 70500 (2019) 35000 (2018) 53500 36800 39400 53900 67500 69300
2020-02-19 03:45 10.88 78300 70500 (2019) 35000 (2018) 53500 36800 39400 53900 67500 69300
2020-02-19 02:45 10.91 78500 70500 (2019) 35000 (2018) 53500 36800 39400 53900 67500 69300
2020-02-19 01:45 10.92 78600 70500 (2019) 35000 (2018) 53500 36800 39400 53900 67500 69300
2020-02-19 00:45 10.91 78500 70500 (2019) 35000 (2018) 53500 36800 39400 53900 67500 69300
2020-02-18 23:45 10.88 78300 74300 (2019) 34600 (2018) 53900 36700 39800 54700 67700 71700
2020-02-18 22:45 10.88 78300 74300 (2019) 34600 (2018) 53900 36700 39800 54700 67700 71700
2020-02-18 21:45 10.95 78800 74300 (2019) 34600 (2018) 53900 36700 39800 54700 67700 71700
2020-02-18 20:45 10.96 78900 74300 (2019) 34600 (2018) 53900 36700 39800 54700 67700 71700
2020-02-18 19:45 10.95 78800 74300 (2019) 34600 (2018) 53900 36700 39800 54700 67700 71700
2020-02-18 18:45 10.95 78800 74300 (2019) 34600 (2018) 53900 36700 39800 54700 67700 71700
2020-02-18 17:45 10.97 78900 74300 (2019) 34600 (2018) 53900 36700 39800 54700 67700 71700
2020-02-18 16:45 10.96 78900 74300 (2019) 34600 (2018) 53900 36700 39800 54700 67700 71700
2020-02-18 15:45 10.96 78900 74300 (2019) 34600 (2018) 53900 36700 39800 54700 67700 71700
2020-02-18 14:45 11.00 79200 74300 (2019) 34600 (2018) 53900 36700 39800 54700 67700 71700
2020-02-18 13:45 10.97 78900 74300 (2019) 34600 (2018) 53900 36700 39800 54700 67700 71700
2020-02-18 12:45 10.99 79100 74300 (2019) 34600 (2018) 53900 36700 39800 54700 67700 71700
2020-02-18 11:45 10.95 78800 74300 (2019) 34600 (2018) 53900 36700 39800 54700 67700 71700
2020-02-18 10:45 10.98 79000 74300 (2019) 34600 (2018) 53900 36700 39800 54700 67700 71700
2020-02-18 09:45 10.95 78800 74300 (2019) 34600 (2018) 53900 36700 39800 54700 67700 71700
2020-02-18 08:45 10.94 78700 74300 (2019) 34600 (2018) 53900 36700 39800 54700 67700 71700
2020-02-18 07:45 10.93 78700 74300 (2019) 34600 (2018) 53900 36700 39800 54700 67700 71700
2020-02-18 06:45 10.96 78900 74300 (2019) 34600 (2018) 53900 36700 39800 54700 67700 71700
2020-02-18 05:45 10.93 78700 74300 (2019) 34600 (2018) 53900 36700 39800 54700 67700 71700
2020-02-18 04:45 10.93 78700 74300 (2019) 34600 (2018) 53900 36700 39800 54700 67700 71700
2020-02-18 03:45 10.94 78700 74300 (2019) 34600 (2018) 53900 36700 39800 54700 67700 71700
2020-02-18 02:45 10.93 78700 74300 (2019) 34600 (2018) 53900 36700 39800 54700 67700 71700
2020-02-18 01:45 10.92 78600 74300 (2019) 34600 (2018) 53900 36700 39800 54700 67700 71700
2020-02-18 00:45 10.93 78700 74300 (2019) 34600 (2018) 53900 36700 39800 54700 67700 71700

A total of 184 rows are displayed for years 2015 through 2019.